Time;durP1;ratioP1;P1;durP2;ratioP2;P2;SDS_P1;SDS_P2;PMS_P1;PMS_P2;Temp;Humidity;BMP_temperature;BMP_pressure;BME280_temperature;BME280_humidity;BME280_pressure;Samples;Min_cycle;Max_cycle;Signal;HPM_P1;HPM_P2
2023/03/05 00:01:07;;;;;;;5.53;2.00;;;7.70;99.90;;;;;;4997836;28;20947;-75
2023/03/05 00:03:33;;;;;;;6.93;2.20;;;7.70;99.90;;;;;;5015041;28;20512;-75
2023/03/05 00:06:02;;;;;;;4.93;2.10;;;7.70;99.90;;;;;;5014486;28;20429;-75
2023/03/05 00:08:31;;;;;;;8.20;2.43;;;7.70;99.90;;;;;;5031063;28;20486;-75
2023/03/05 00:11:01;;;;;;;5.83;2.40;;;7.70;99.90;;;;;;5014400;28;20489;-76
2023/03/05 00:13:28;;;;;;;8.77;2.80;;;7.70;99.90;;;;;;5014609;28;20760;-75
2023/03/05 00:15:54;;;;;;;4.23;2.30;;;7.70;99.90;;;;;;4997597;28;20452;-75
2023/03/05 00:18:23;;;;;;;6.20;2.70;;;7.70;99.90;;;;;;5013788;28;20443;-75
2023/03/05 00:20:54;;;;;;;6.47;2.47;;;7.70;99.90;;;;;;4997671;28;20466;-75
2023/03/05 00:23:22;;;;;;;7.67;2.93;;;7.70;99.90;;;;;;5032546;28;20449;-74
2023/03/05 00:25:48;;;;;;;4.60;2.20;;;7.70;99.90;;;;;;5030960;28;20472;-74
2023/03/05 00:28:14;;;;;;;9.23;2.87;;;7.70;99.90;;;;;;4999011;28;20470;-74
2023/03/05 00:30:40;;;;;;;4.30;2.50;;;7.70;99.90;;;;;;5020957;28;20535;-74
2023/03/05 00:33:08;;;;;;;8.17;3.30;;;7.60;99.90;;;;;;5031075;28;20446;-75
2023/03/05 00:35:45;;;;;;;6.50;2.77;;;7.70;99.90;;;;;;5030625;28;20418;-73
2023/03/05 00:38:12;;;;;;;4.90;1.90;;;7.70;99.90;;;;;;5035579;28;20446;-74
2023/03/05 00:40:44;;;;;;;6.13;2.10;;;7.70;99.90;;;;;;4984591;28;20463;-74
2023/03/05 00:43:10;;;;;;;5.93;2.37;;;7.70;99.90;;;;;;5019691;28;20423;-76
2023/03/05 00:45:38;;;;;;;8.13;3.50;;;7.60;99.90;;;;;;4971409;28;20473;-75
2023/03/05 00:48:04;;;;;;;6.57;2.73;;;7.60;99.90;;;;;;4987925;28;20465;-74
2023/03/05 00:50:30;;;;;;;5.03;1.97;;;7.60;99.90;;;;;;5013556;28;20560;-74
2023/03/05 00:52:59;;;;;;;9.10;3.20;;;7.60;99.90;;;;;;4997471;28;20472;-75
2023/03/05 00:55:25;;;;;;;6.13;2.37;;;7.60;99.90;;;;;;4997995;28;20687;-75
2023/03/05 00:57:51;;;;;;;5.50;2.17;;;7.60;99.90;;;;;;5031928;28;20490;-75
2023/03/05 01:00:20;;;;;;;6.90;2.10;;;7.60;99.90;;;;;;5015096;28;20439;-75
2023/03/05 01:02:48;;;;;;;4.30;1.67;;;7.60;99.90;;;;;;5018661;28;20430;-75
2023/03/05 01:05:19;;;;;;;5.73;2.30;;;7.60;99.90;;;;;;5018522;28;20399;-75
2023/03/05 01:07:47;;;;;;;7.20;2.20;;;7.60;99.90;;;;;;5001732;28;20835;-75
2023/03/05 01:10:15;;;;;;;4.70;2.10;;;7.60;99.90;;;;;;5035981;28;21111;-75
2023/03/05 01:12:44;;;;;;;4.30;1.83;;;7.60;99.90;;;;;;5017624;28;20438;-75
2023/03/05 01:15:12;;;;;;;5.17;2.00;;;7.60;99.90;;;;;;5035083;28;20417;-75
2023/03/05 01:17:39;;;;;;;5.10;2.27;;;7.60;99.90;;;;;;5018071;28;20523;-75
2023/03/05 01:20:07;;;;;;;5.03;2.23;;;7.60;99.90;;;;;;5035796;28;20460;-75
2023/03/05 01:22:36;;;;;;;8.55;2.45;;;7.60;99.90;;;;;;5017856;28;20506;-75
2023/03/05 01:25:03;;;;;;;6.70;1.77;;;7.60;99.90;;;;;;5001873;28;20744;-75
2023/03/05 01:27:33;;;;;;;6.67;2.03;;;7.60;99.90;;;;;;5001597;28;21056;-75
2023/03/05 01:30:04;;;;;;;6.83;2.43;;;7.60;99.90;;;;;;4986023;28;20484;-75
2023/03/05 01:32:30;;;;;;;4.27;2.10;;;7.60;99.90;;;;;;4985387;28;20449;-75
2023/03/05 01:34:56;;;;;;;6.70;2.53;;;7.60;99.90;;;;;;5033923;28;20433;-75
2023/03/05 01:37:22;;;;;;;6.00;2.00;;;7.60;99.90;;;;;;5001401;28;20509;-75
2023/03/05 01:39:50;;;;;;;6.03;1.90;;;7.60;99.90;;;;;;5035318;28;20421;-75
2023/03/05 01:42:20;;;;;;;3.60;2.17;;;7.60;99.90;;;;;;5017816;28;20905;-75
2023/03/05 01:45:06;;;;;;;4.57;2.23;;;7.60;99.90;;;;;;5033984;28;20910;-75
2023/03/05 01:47:34;;;;;;;4.63;2.10;;;7.60;99.90;;;;;;5017676;28;20433;-75
2023/03/05 01:50:04;;;;;;;4.93;2.57;;;7.60;99.90;;;;;;5001039;28;20807;-75
2023/03/05 01:52:36;;;;;;;6.17;1.70;;;7.60;99.90;;;;;;5034549;28;20425;-75
2023/03/05 01:55:10;;;;;;;4.80;2.03;;;7.60;99.90;;;;;;5017661;28;20968;-75
2023/03/05 01:57:43;;;;;;;6.87;2.43;;;7.60;99.90;;;;;;5007407;28;20446;-75
2023/03/05 02:00:20;;;;;;;3.23;2.00;;;7.50;99.90;;;;;;5009225;28;20462;-75
2023/03/05 02:02:50;;;;;;;4.13;2.03;;;7.50;99.90;;;;;;5001310;28;20767;-75
2023/03/05 02:05:29;;;;;;;4.17;1.90;;;7.60;99.90;;;;;;4999554;28;20480;-75
2023/03/05 02:07:59;;;;;;;3.08;1.98;;;7.50;99.90;;;;;;4999889;28;20449;-75
2023/03/05 02:10:31;;;;;;;5.47;2.40;;;7.50;99.90;;;;;;4985022;28;20640;-75
2023/03/05 02:13:08;;;;;;;4.32;1.90;;;7.50;99.90;;;;;;4984050;28;20773;-75
2023/03/05 02:15:37;;;;;;;3.47;1.85;;;7.50;99.90;;;;;;5017070;28;20240;-75
2023/03/05 02:18:04;;;;;;;4.93;1.20;;;7.50;99.90;;;;;;5016910;28;20207;-75
2023/03/05 02:20:46;;;;;;;6.03;2.10;;;7.50;99.90;;;;;;5000841;28;20431;-76
2023/03/05 02:23:16;;;;;;;3.92;1.60;;;7.50;99.90;;;;;;4997485;28;20194;-75
2023/03/05 02:25:45;;;;;;;6.00;1.90;;;7.50;99.90;;;;;;5026262;28;20195;-75
2023/03/05 02:28:29;;;;;;;5.75;1.95;;;7.50;99.90;;;;;;5006157;28;20243;-75
2023/03/05 02:30:57;;;;;;;4.93;1.63;;;7.50;99.90;;;;;;5006659;28;20219;-75
2023/03/05 02:33:23;;;;;;;5.77;1.93;;;7.50;99.90;;;;;;5014656;28;20509;-75
2023/03/05 02:35:49;;;;;;;6.15;1.80;;;7.50;99.90;;;;;;5000597;28;20420;-75
2023/03/05 02:38:20;;;;;;;6.00;2.28;;;7.50;99.90;;;;;;5001250;28;20203;-75
2023/03/05 02:40:49;;;;;;;3.97;1.63;;;7.50;99.90;;;;;;5016927;28;20184;-75
2023/03/05 02:43:20;;;;;;;3.37;1.70;;;7.50;99.90;;;;;;5000457;28;20412;-75
2023/03/05 02:45:47;;;;;;;3.97;2.83;;;7.50;99.90;;;;;;5012962;28;20862;-75
2023/03/05 02:48:13;;;;;;;6.32;2.25;;;7.50;99.90;;;;;;4984965;28;20289;-75
2023/03/05 02:50:40;;;;;;;3.87;1.90;;;7.50;99.90;;;;;;5000173;28;20209;-75
2023/03/05 02:53:08;;;;;;;3.10;1.43;;;7.50;99.90;;;;;;4983955;28;20814;-75
2023/03/05 02:55:36;;;;;;;6.47;1.73;;;7.50;99.90;;;;;;5016550;28;20406;-75
2023/03/05 02:58:04;;;;;;;4.95;1.73;;;7.50;99.90;;;;;;5000188;28;20451;-76
2023/03/05 03:00:30;;;;;;;6.05;1.73;;;7.50;99.90;;;;;;5000052;28;20273;-75
2023/03/05 03:02:56;;;;;;;7.37;1.70;;;7.50;99.90;;;;;;4999800;28;20209;-75
2023/03/05 03:05:22;;;;;;;7.40;2.07;;;7.50;99.90;;;;;;5000144;28;20456;-75
2023/03/05 03:07:53;;;;;;;4.38;1.80;;;7.50;99.90;;;;;;5033158;28;20492;-75
2023/03/05 03:10:24;;;;;;;6.85;1.70;;;7.50;99.90;;;;;;4991945;28;20202;-75
2023/03/05 03:12:50;;;;;;;3.10;1.73;;;7.50;99.90;;;;;;5018078;28;20198;-75
2023/03/05 03:15:17;;;;;;;6.20;2.00;;;7.50;99.90;;;;;;5000138;28;20173;-75
2023/03/05 03:17:43;;;;;;;3.93;2.00;;;7.50;99.90;;;;;;4999485;28;20214;-75
2023/03/05 03:20:16;;;;;;;6.13;2.50;;;7.50;99.90;;;;;;4999947;28;20555;-75
2023/03/05 03:22:45;;;;;;;4.70;1.90;;;7.50;99.90;;;;;;4995737;28;20212;-75
2023/03/05 03:25:16;;;;;;;5.97;1.95;;;7.50;99.90;;;;;;5019329;28;20524;-75
2023/03/05 03:27:43;;;;;;;4.80;1.50;;;7.40;99.90;;;;;;5015944;28;20211;-75
2023/03/05 03:30:14;;;;;;;3.93;2.10;;;7.50;99.90;;;;;;5033014;28;20452;-75
2023/03/05 03:32:41;;;;;;;5.18;2.25;;;7.40;99.90;;;;;;5032109;28;20499;-75
2023/03/05 03:35:12;;;;;;;5.17;1.90;;;7.50;99.90;;;;;;5033117;28;20184;-75
2023/03/05 03:37:38;;;;;;;7.47;2.10;;;7.50;99.90;;;;;;5032078;28;20477;-75
2023/03/05 03:40:05;;;;;;;2.43;1.70;;;7.40;99.90;;;;;;4995428;28;20445;-75
2023/03/05 03:42:34;;;;;;;4.10;1.67;;;7.40;99.90;;;;;;4986877;28;20466;-75
2023/03/05 03:45:01;;;;;;;6.27;1.70;;;7.40;99.90;;;;;;5033118;28;20175;-75
2023/03/05 03:47:31;;;;;;;7.20;3.60;;;7.40;99.90;;;;;;4999423;28;20470;-75
2023/03/05 03:49:57;;;;;;;3.25;1.90;;;7.40;99.90;;;;;;5015422;28;20422;-75
2023/03/05 03:52:24;;;;;;;6.13;1.70;;;7.40;99.90;;;;;;4995643;28;20654;-75
2023/03/05 03:54:51;;;;;;;5.00;1.50;;;7.40;99.90;;;;;;5008012;28;21159;-75
2023/03/05 03:57:18;;;;;;;4.28;1.85;;;7.40;99.90;;;;;;5032627;28;20471;-75
2023/03/05 03:59:44;;;;;;;5.30;1.80;;;7.40;99.90;;;;;;5014593;28;20206;-75
2023/03/05 04:02:13;;;;;;;4.03;1.90;;;7.40;99.90;;;;;;5032582;28;20883;-75
2023/03/05 04:04:39;;;;;;;5.00;1.90;;;7.40;99.90;;;;;;5015810;28;20433;-75
2023/03/05 04:07:07;;;;;;;3.07;1.53;;;7.40;99.90;;;;;;5015438;28;20452;-75
2023/03/05 04:09:35;;;;;;;7.47;1.77;;;7.40;99.90;;;;;;4998729;28;20434;-75
2023/03/05 04:12:04;;;;;;;3.70;1.57;;;7.40;99.90;;;;;;5014265;28;20488;-75
2023/03/05 04:14:30;;;;;;;6.00;2.10;;;7.40;99.90;;;;;;4998777;28;20425;-75
2023/03/05 04:16:56;;;;;;;3.27;1.90;;;7.40;99.90;;;;;;5014709;28;20492;-75
2023/03/05 04:19:27;;;;;;;10.27;2.00;;;7.40;99.90;;;;;;4998697;28;20452;-75
2023/03/05 04:21:53;;;;;;;2.50;1.53;;;7.40;99.90;;;;;;5014946;28;20182;-75
2023/03/05 04:24:19;;;;;;;3.30;1.40;;;7.40;99.90;;;;;;5014352;28;20511;-75
2023/03/05 04:26:52;;;;;;;6.97;1.77;;;7.40;99.90;;;;;;5014354;28;20530;-75
2023/03/05 04:29:21;;;;;;;2.87;1.60;;;7.40;99.90;;;;;;5015047;28;20440;-75
2023/03/05 04:31:47;;;;;;;8.20;1.90;;;7.40;99.90;;;;;;5014246;28;21012;-75
2023/03/05 04:34:13;;;;;;;5.80;1.97;;;7.40;99.90;;;;;;5060665;23;20550;-71
2023/03/05 04:36:39;;;;;;;5.50;2.03;;;7.30;99.90;;;;;;5039873;28;20941;-74
2023/03/05 04:39:08;;;;;;;7.80;2.40;;;7.30;99.90;;;;;;5027800;28;20450;-72
2023/03/05 04:41:34;;;;;;;6.47;1.67;;;7.30;99.90;;;;;;5012695;28;20513;-71
2023/03/05 04:44:02;;;;;;;3.23;1.80;;;7.30;99.90;;;;;;5010861;28;20443;-71
2023/03/05 04:46:29;;;;;;;6.77;2.20;;;7.30;99.90;;;;;;4995259;28;20461;-74
2023/03/05 04:48:56;;;;;;;4.33;2.00;;;7.30;99.90;;;;;;4979397;28;20454;-74
2023/03/05 04:51:24;;;;;;;6.20;2.17;;;7.30;99.90;;;;;;4994656;28;20467;-74
2023/03/05 04:53:50;;;;;;;3.80;1.97;;;7.30;99.90;;;;;;4996651;28;20503;-74
2023/03/05 04:56:16;;;;;;;3.27;1.50;;;7.30;99.90;;;;;;5006034;28;20883;-75
2023/03/05 04:58:48;;;;;;;5.67;2.30;;;7.40;99.90;;;;;;4997653;28;20456;-74
2023/03/05 05:01:14;;;;;;;4.40;1.70;;;7.30;99.90;;;;;;5014661;28;20553;-74
2023/03/05 05:03:40;;;;;;;4.60;2.00;;;7.30;99.90;;;;;;5029562;28;20890;-71
2023/03/05 05:06:06;;;;;;;7.87;2.40;;;7.30;99.90;;;;;;4994986;28;20418;-73
2023/03/05 05:08:35;;;;;;;3.97;1.97;;;7.30;99.90;;;;;;5018022;28;20544;-73
2023/03/05 05:11:06;;;;;;;8.60;2.20;;;7.30;99.90;;;;;;4978980;28;20561;-73
2023/03/05 05:13:34;;;;;;;6.00;2.10;;;7.30;99.90;;;;;;5032982;28;20486;-74
2023/03/05 05:16:00;;;;;;;4.90;1.87;;;7.40;99.90;;;;;;5030718;28;20832;-73
2023/03/05 05:18:26;;;;;;;6.87;2.33;;;7.30;99.90;;;;;;5014361;28;20992;-74
2023/03/05 05:20:52;;;;;;;4.00;2.00;;;7.30;99.90;;;;;;4990072;28;20445;-73
2023/03/05 05:23:18;;;;;;;3.47;1.60;;;7.30;99.90;;;;;;5012428;28;20904;-74
2023/03/05 05:25:58;;;;;;;5.97;1.90;;;7.30;99.90;;;;;;5012224;28;20472;-71
2023/03/05 05:28:24;;;;;;;3.13;1.40;;;7.30;99.90;;;;;;4994757;28;20448;-74
2023/03/05 05:30:50;;;;;;;4.80;1.90;;;7.30;99.90;;;;;;5011022;28;21229;-74
2023/03/05 05:33:16;;;;;;;6.30;2.27;;;7.30;99.90;;;;;;5014426;28;20529;-74
2023/03/05 05:35:45;;;;;;;9.97;3.90;;;7.30;99.90;;;;;;5007336;28;20450;-74
2023/03/05 05:38:13;;;;;;;5.33;1.70;;;7.30;99.90;;;;;;5011952;28;20440;-74
2023/03/05 05:40:41;;;;;;;7.30;2.07;;;7.30;99.90;;;;;;5017648;28;20457;-71
2023/03/05 05:43:07;;;;;;;3.47;1.90;;;7.30;99.90;;;;;;5004709;28;20446;-71
2023/03/05 05:45:36;;;;;;;5.17;1.70;;;7.30;99.90;;;;;;4994968;28;20432;-72
2023/03/05 05:48:07;;;;;;;2.73;1.53;;;7.30;99.90;;;;;;4997725;28;20438;-74
2023/03/05 05:50:33;;;;;;;8.15;1.95;;;7.30;99.90;;;;;;5015892;28;20495;-74
2023/03/05 05:53:01;;;;;;;7.40;2.00;;;7.30;99.90;;;;;;5023565;28;20209;-73
2023/03/05 05:55:27;;;;;;;4.27;1.97;;;7.30;99.90;;;;;;5013044;28;20430;-74
2023/03/05 05:57:58;;;;;;;5.23;2.00;;;7.30;99.90;;;;;;4998072;28;20511;-73
2023/03/05 06:00:24;;;;;;;5.73;2.17;;;7.30;99.90;;;;;;5016721;28;20443;-71
2023/03/05 06:02:50;;;;;;;5.60;1.97;;;7.20;99.90;;;;;;4983178;28;20939;-74
2023/03/05 06:05:21;;;;;;;4.83;1.83;;;7.30;99.90;;;;;;5014586;28;20424;-71
2023/03/05 06:07:47;;;;;;;4.30;1.93;;;7.20;99.90;;;;;;5015099;28;20445;-74
2023/03/05 06:10:13;;;;;;;5.40;2.00;;;7.20;99.90;;;;;;5014793;28;20994;-74
2023/03/05 06:12:40;;;;;;;5.37;1.97;;;7.20;99.90;;;;;;5011922;28;20452;-74
2023/03/05 06:15:06;;;;;;;5.73;2.13;;;7.20;99.90;;;;;;5024068;28;20444;-74
2023/03/05 06:17:32;;;;;;;4.40;2.40;;;7.20;99.90;;;;;;5017320;28;20450;-73
2023/03/05 06:19:59;;;;;;;6.17;1.90;;;7.20;99.90;;;;;;5005073;28;20169;-74
2023/03/05 06:22:26;;;;;;;5.60;2.00;;;7.20;99.90;;;;;;5000197;28;20461;-74
2023/03/05 06:24:54;;;;;;;5.20;2.20;;;7.20;99.90;;;;;;5017294;28;20439;-74
2023/03/05 06:27:22;;;;;;;5.00;2.07;;;7.20;99.90;;;;;;4997323;28;20434;-74
2023/03/05 06:29:52;;;;;;;4.73;2.00;;;7.20;99.90;;;;;;4997741;28;20418;-74
2023/03/05 06:32:18;;;;;;;5.73;2.07;;;7.20;99.90;;;;;;5012668;28;20466;-74
2023/03/05 06:34:44;;;;;;;4.22;2.25;;;7.20;99.90;;;;;;4997413;28;21007;-74
2023/03/05 06:37:10;;;;;;;3.97;2.00;;;7.20;99.90;;;;;;5031999;28;20179;-74
2023/03/05 06:39:38;;;;;;;4.50;1.70;;;7.20;99.90;;;;;;5012934;28;20499;-75
2023/03/05 06:42:04;;;;;;;6.33;1.93;;;7.20;99.90;;;;;;5013429;28;20991;-73
2023/03/05 06:44:35;;;;;;;6.63;2.10;;;7.20;99.90;;;;;;5000590;28;20426;-73
2023/03/05 06:47:01;;;;;;;6.23;2.30;;;7.20;99.90;;;;;;5016539;28;20786;-74
2023/03/05 06:49:32;;;;;;;6.93;2.60;;;7.20;99.90;;;;;;4998078;28;20486;-74
2023/03/05 06:52:02;;;;;;;3.70;2.00;;;7.20;99.90;;;;;;5023481;28;20476;-73
2023/03/05 06:54:31;;;;;;;6.53;2.30;;;7.20;99.90;;;;;;5006534;28;20516;-73
2023/03/05 06:56:57;;;;;;;5.10;2.30;;;7.20;99.90;;;;;;4984965;28;20435;-74
2023/03/05 06:59:26;;;;;;;7.70;2.60;;;7.20;99.90;;;;;;5020877;28;20437;-72
2023/03/05 07:01:52;;;;;;;5.43;1.97;;;7.20;99.90;;;;;;4986701;28;20457;-72
2023/03/05 07:04:22;;;;;;;5.17;2.20;;;7.20;99.90;;;;;;5014473;28;20442;-71
2023/03/05 07:06:49;;;;;;;4.20;2.27;;;7.20;99.90;;;;;;5014523;28;20450;-73
2023/03/05 07:09:17;;;;;;;4.37;2.50;;;7.20;99.90;;;;;;5011362;28;20467;-71
2023/03/05 07:11:45;;;;;;;6.37;2.30;;;7.20;99.90;;;;;;5024091;28;20462;-70
2023/03/05 07:14:11;;;;;;;4.20;2.33;;;7.20;99.90;;;;;;5012419;28;20479;-73
2023/03/05 07:16:37;;;;;;;2.97;1.70;;;7.20;99.90;;;;;;5006013;28;20471;-71
2023/03/05 07:19:06;;;;;;;4.50;2.00;;;7.20;99.90;;;;;;4997594;28;20470;-73
2023/03/05 07:21:39;;;;;;;8.60;2.50;;;7.10;99.90;;;;;;5000902;28;20455;-72
2023/03/05 07:24:07;;;;;;;5.23;2.40;;;7.10;99.90;;;;;;5022198;28;20461;-73
2023/03/05 07:26:33;;;;;;;4.80;2.30;;;7.10;99.90;;;;;;5002416;28;20534;-73
2023/03/05 07:29:00;;;;;;;7.25;2.58;;;7.10;99.90;;;;;;4994093;28;20458;-73
2023/03/05 07:31:29;;;;;;;6.83;2.80;;;7.10;99.90;;;;;;4997670;28;20921;-73
2023/03/05 07:33:56;;;;;;;2.93;2.07;;;7.10;99.90;;;;;;4994685;28;20473;-70
2023/03/05 07:36:27;;;;;;;7.13;2.30;;;7.10;99.90;;;;;;5012719;28;20513;-71
2023/03/05 07:38:53;;;;;;;5.73;2.50;;;7.10;99.90;;;;;;4993969;28;20433;-72
2023/03/05 07:41:22;;;;;;;4.80;2.27;;;7.10;99.90;;;;;;4993708;28;20439;-73
2023/03/05 07:43:50;;;;;;;6.80;3.07;;;7.10;99.90;;;;;;4997287;28;20442;-73
2023/03/05 07:46:20;;;;;;;5.27;2.77;;;7.10;99.90;;;;;;4993075;28;20472;-73
2023/03/05 07:48:46;;;;;;;5.40;2.70;;;7.10;99.90;;;;;;4976062;28;20467;-72
2023/03/05 07:51:15;;;;;;;4.10;2.43;;;7.10;99.90;;;;;;5027965;28;20481;-72
2023/03/05 07:53:42;;;;;;;4.30;2.67;;;7.10;99.90;;;;;;5023040;28;20198;-70
2023/03/05 07:56:09;;;;;;;5.57;2.30;;;7.10;99.90;;;;;;5010815;28;21365;-73
2023/03/05 07:58:36;;;;;;;8.87;2.47;;;7.10;99.90;;;;;;5002939;28;20825;-73
2023/03/05 08:01:09;;;;;;;4.85;2.70;;;7.10;99.90;;;;;;5019674;28;20582;-73
2023/03/05 08:03:35;;;;;;;7.77;3.10;;;7.10;99.90;;;;;;4987427;28;20680;-73
2023/03/05 08:06:07;;;;;;;7.93;2.63;;;7.10;99.90;;;;;;5006616;28;20459;-73
2023/03/05 08:08:35;;;;;;;4.77;2.80;;;7.10;99.90;;;;;;4983341;28;21166;-73
2023/03/05 08:11:09;;;;;;;5.20;3.00;;;7.10;99.90;;;;;;4990621;28;21056;-74
2023/03/05 08:13:38;;;;;;;5.97;2.60;;;7.10;99.90;;;;;;5019103;28;20491;-73
2023/03/05 08:16:05;;;;;;;5.60;2.37;;;7.10;99.90;;;;;;5011824;28;20454;-71
2023/03/05 08:18:31;;;;;;;8.17;2.90;;;7.10;99.90;;;;;;5012782;28;20474;-73
2023/03/05 08:20:58;;;;;;;6.20;3.20;;;7.10;99.90;;;;;;5011788;28;20479;-73
2023/03/05 08:23:24;;;;;;;11.67;2.80;;;7.10;99.90;;;;;;5003067;28;20534;-73
2023/03/05 08:25:50;;;;;;;4.00;2.50;;;7.10;99.90;;;;;;4995237;28;20468;-73
2023/03/05 08:28:19;;;;;;;6.90;2.63;;;7.10;99.90;;;;;;4989965;28;20780;-72
2023/03/05 08:30:48;;;;;;;6.73;3.20;;;7.10;99.90;;;;;;4993611;28;20456;-72
2023/03/05 08:33:19;;;;;;;5.17;3.47;;;7.10;99.90;;;;;;5023579;28;20434;-73
2023/03/05 08:35:45;;;;;;;7.90;3.00;;;7.10;99.90;;;;;;5012455;28;20432;-71
2023/03/05 08:38:11;;;;;;;6.15;2.88;;;7.10;99.90;;;;;;5011665;28;20454;-72
2023/03/05 08:40:39;;;;;;;6.88;2.60;;;7.10;99.90;;;;;;5013191;28;20172;-73
2023/03/05 08:43:06;;;;;;;5.37;2.83;;;7.10;99.90;;;;;;5026149;28;20190;-72
2023/03/05 08:45:32;;;;;;;4.87;2.63;;;7.10;99.90;;;;;;4976409;28;20443;-71
2023/03/05 08:48:00;;;;;;;6.83;2.63;;;7.10;99.90;;;;;;5031734;28;20434;-72
2023/03/05 08:50:28;;;;;;;8.90;3.03;;;7.10;99.90;;;;;;4998751;28;20459;-70
2023/03/05 08:52:59;;;;;;;6.93;2.60;;;7.10;99.90;;;;;;5013123;28;20454;-71
2023/03/05 08:55:25;;;;;;;7.80;2.77;;;7.10;99.90;;;;;;4995331;28;20463;-72
2023/03/05 08:57:54;;;;;;;5.17;2.80;;;7.10;99.90;;;;;;5014336;28;20816;-72
2023/03/05 09:00:22;;;;;;;7.10;3.30;;;7.10;99.90;;;;;;5015297;28;20945;-72
2023/03/05 09:02:51;;;;;;;7.17;2.87;;;7.10;99.90;;;;;;5024485;28;20177;-72
2023/03/05 09:05:19;;;;;;;5.13;3.10;;;7.10;99.90;;;;;;5013150;28;20415;-69
2023/03/05 09:07:48;;;;;;;5.50;2.50;;;7.10;99.90;;;;;;5024067;28;20978;-69
2023/03/05 09:10:18;;;;;;;5.83;3.40;;;7.10;99.90;;;;;;5012912;28;20466;-72
2023/03/05 09:12:44;;;;;;;4.40;2.63;;;7.10;99.90;;;;;;5027922;28;20443;-71
2023/03/05 09:15:13;;;;;;;5.57;3.10;;;7.10;99.90;;;;;;4995272;28;20430;-72
2023/03/05 09:17:41;;;;;;;7.45;3.42;;;7.10;99.90;;;;;;5027873;28;20453;-72
2023/03/05 09:20:11;;;;;;;6.60;3.40;;;7.10;99.90;;;;;;4995365;28;20589;-71
2023/03/05 09:22:37;;;;;;;4.40;2.63;;;7.10;99.90;;;;;;4994242;28;20544;-71
2023/03/05 09:25:04;;;;;;;7.28;3.25;;;7.10;99.90;;;;;;5016565;28;20457;-71
2023/03/05 09:27:36;;;;;;;6.43;2.70;;;7.10;99.90;;;;;;5005600;28;20241;-72
2023/03/05 09:30:03;;;;;;;5.17;2.37;;;7.10;99.90;;;;;;4999217;28;20394;-72
2023/03/05 09:32:29;;;;;;;4.73;2.80;;;7.10;99.90;;;;;;4999164;28;20583;-72
2023/03/05 09:34:56;;;;;;;4.73;2.63;;;7.10;99.90;;;;;;4999426;28;20447;-72
2023/03/05 09:37:22;;;;;;;6.90;3.30;;;7.10;99.90;;;;;;4999033;28;20409;-72
2023/03/05 09:39:48;;;;;;;8.88;3.75;;;7.10;99.90;;;;;;5015432;28;20492;-72
2023/03/05 09:42:26;;;;;;;5.50;2.90;;;7.10;99.90;;;;;;5015234;28;20172;-72
2023/03/05 09:45:25;;;;;;;4.55;3.22;;;7.10;99.90;;;;;;4999050;28;20413;-72
2023/03/05 09:48:15;;;;;;;4.40;2.53;;;7.10;99.90;;;;;;5002941;28;20216;-72
2023/03/05 09:51:02;;;;;;;6.20;3.20;;;7.10;99.90;;;;;;4999700;28;20226;-72
2023/03/05 09:53:41;;;;;;;4.37;3.10;;;7.10;99.90;;;;;;5018721;28;20448;-70
2023/03/05 09:56:19;;;;;;;5.60;2.73;;;7.10;99.90;;;;;;5030141;28;20545;-70
2023/03/05 09:58:56;;;;;;;8.50;3.50;;;7.10;99.90;;;;;;4993620;28;20449;-70
2023/03/05 10:01:30;;;;;;;5.15;2.90;;;7.10;99.90;;;;;;5003514;28;20965;-70
2023/03/05 10:04:05;;;;;;;3.27;2.77;;;7.10;99.90;;;;;;4998976;28;20916;-72
2023/03/05 10:06:49;;;;;;;3.23;2.93;;;7.10;99.90;;;;;;4994876;28;20451;-72
2023/03/05 10:09:34;;;;;;;5.87;3.13;;;7.10;99.90;;;;;;5011373;28;20451;-72
2023/03/05 10:12:04;;;;;;;6.00;3.43;;;7.10;99.90;;;;;;4978959;28;20543;-72
2023/03/05 10:14:37;;;;;;;4.63;3.00;;;7.10;99.90;;;;;;5026294;28;20417;-70
2023/03/05 10:17:34;;;;;;;7.63;2.97;;;7.10;99.90;;;;;;5018278;28;20401;-69
2023/03/05 10:20:08;;;;;;;5.88;2.83;;;7.10;99.90;;;;;;4997690;28;20987;-69
2023/03/05 10:22:53;;;;;;;3.27;2.60;;;7.10;99.90;;;;;;4992349;28;20187;-70
2023/03/05 10:25:22;;;;;;;5.33;2.80;;;7.10;99.90;;;;;;5001988;28;20433;-72
2023/03/05 10:28:04;;;;;;;4.60;2.90;;;7.10;99.90;;;;;;5015626;28;20446;-72
2023/03/05 10:30:53;;;;;;;4.97;2.95;;;7.10;99.90;;;;;;4998457;28;20185;-72
2023/03/05 10:33:54;;;;;;;5.30;3.17;;;7.10;99.90;;;;;;5009994;28;20267;-73
2023/03/05 10:36:44;;;;;;;3.20;2.90;;;7.10;99.90;;;;;;4985694;28;20994;-71
2023/03/05 10:39:48;;;;;;;4.60;3.00;;;7.10;99.90;;;;;;5015043;28;20886;-74
2023/03/05 10:42:27;;;;;;;3.20;2.80;;;7.10;99.90;;;;;;5002312;28;20418;-74
2023/03/05 10:44:58;;;;;;;5.10;3.07;;;7.10;99.90;;;;;;5005437;28;20195;-73
2023/03/05 10:47:39;;;;;;;4.05;2.88;;;7.10;99.90;;;;;;5033698;28;20445;-73
2023/03/05 10:50:21;;;;;;;5.63;2.90;;;7.10;99.90;;;;;;5033725;28;20225;-72
2023/03/05 10:53:04;;;;;;;5.35;2.95;;;7.10;99.90;;;;;;4976326;28;20449;-72
2023/03/05 10:55:31;;;;;;;4.23;2.80;;;7.10;99.90;;;;;;5014092;28;20218;-72
2023/03/05 10:58:01;;;;;;;4.30;3.10;;;7.10;99.90;;;;;;4997742;28;20835;-72
2023/03/05 11:00:27;;;;;;;6.50;2.90;;;7.10;99.90;;;;;;5044772;28;20467;-72
2023/03/05 11:03:06;;;;;;;4.17;3.20;;;7.10;99.90;;;;;;5017305;28;20168;-72
2023/03/05 11:05:47;;;;;;;6.72;3.45;;;7.10;99.90;;;;;;5034290;28;20493;-71
2023/03/05 11:08:32;;;;;;;5.72;2.80;;;7.20;99.90;;;;;;5016923;28;20200;-73
2023/03/05 11:11:06;;;;;;;3.93;2.97;;;7.10;99.90;;;;;;5014045;28;20246;-72
2023/03/05 11:13:59;;;;;;;3.27;2.23;;;7.10;99.90;;;;;;4997213;28;20826;-70
2023/03/05 11:16:31;;;;;;;11.03;2.83;;;7.20;99.90;;;;;;5008580;28;20442;-71
2023/03/05 11:19:34;;;;;;;4.07;2.70;;;7.20;99.90;;;;;;5016579;28;20453;-70
2023/03/05 11:22:17;;;;;;;4.43;2.60;;;7.20;99.90;;;;;;4994255;28;20440;-69
2023/03/05 11:25:01;;;;;;;4.23;2.50;;;7.20;99.90;;;;;;4996909;28;20488;-75
2023/03/05 11:27:38;;;;;;;4.10;2.80;;;7.20;99.90;;;;;;5013982;28;20440;-72
2023/03/05 11:30:24;;;;;;;4.85;2.60;;;7.20;99.90;;;;;;4980942;28;20767;-74
2023/03/05 11:33:19;;;;;;;4.15;3.15;;;7.20;99.90;;;;;;5013560;28;20180;-73
2023/03/05 11:35:49;;;;;;;4.40;2.40;;;7.20;99.90;;;;;;4997013;28;20310;-72
2023/03/05 11:38:17;;;;;;;4.07;2.60;;;7.20;99.90;;;;;;4996878;28;20455;-70
2023/03/05 11:40:46;;;;;;;4.93;2.60;;;7.20;99.90;;;;;;4996921;28;21031;-71
2023/03/05 11:43:20;;;;;;;3.63;3.33;;;7.20;99.90;;;;;;5024791;28;20461;-69
2023/03/05 11:46:04;;;;;;;2.63;2.17;;;7.20;99.90;;;;;;4992074;28;20426;-72
2023/03/05 11:48:38;;;;;;;7.73;2.67;;;7.20;99.90;;;;;;4992525;28;20490;-72
2023/03/05 11:51:15;;;;;;;4.30;3.00;;;7.20;99.90;;;;;;4980453;28;20853;-72
2023/03/05 11:53:45;;;;;;;3.43;2.60;;;7.30;99.90;;;;;;5011097;28;20436;-72
2023/03/05 11:56:25;;;;;;;4.07;2.57;;;7.30;99.90;;;;;;5006624;28;20427;-72
2023/03/05 11:59:18;;;;;;;2.93;2.70;;;7.30;99.90;;;;;;5008068;28;20449;-73
2023/03/05 12:01:53;;;;;;;5.63;2.63;;;7.30;99.90;;;;;;4996924;28;20408;-72
2023/03/05 12:04:19;;;;;;;3.30;2.50;;;7.30;99.90;;;;;;4963890;28;21030;-72
2023/03/05 12:06:47;;;;;;;3.07;2.70;;;7.30;99.90;;;;;;5030324;28;20468;-72
2023/03/05 12:09:39;;;;;;;7.97;2.40;;;7.30;99.90;;;;;;5019004;28;20957;-72
2023/03/05 12:12:43;;;;;;;2.90;2.60;;;7.40;99.90;;;;;;4993877;28;20541;-72
2023/03/05 12:15:36;;;;;;;3.63;3.33;;;7.40;99.90;;;;;;5008998;28;20459;-70
2023/03/05 12:18:30;;;;;;;3.60;3.03;;;7.40;99.90;;;;;;4989501;28;20461;-71
2023/03/05 12:21:14;;;;;;;4.53;3.00;;;7.40;99.90;;;;;;4996039;28;20468;-72
2023/03/05 12:24:00;;;;;;;6.37;3.40;;;7.40;99.90;;;;;;5013471;28;20449;-72
2023/03/05 12:27:03;;;;;;;3.73;3.00;;;7.40;99.90;;;;;;5004567;28;20458;-72
2023/03/05 12:29:32;;;;;;;5.83;3.47;;;7.40;99.90;;;;;;5010843;28;20819;-72
2023/03/05 12:31:59;;;;;;;5.00;4.03;;;7.40;99.90;;;;;;4995658;28;20443;-72
2023/03/05 12:34:39;;;;;;;6.37;3.73;;;7.40;99.90;;;;;;5002174;28;20438;-72
2023/03/05 12:37:11;;;;;;;3.80;3.03;;;7.40;99.90;;;;;;5015507;28;20418;-71
2023/03/05 12:39:43;;;;;;;3.90;3.17;;;7.40;99.90;;;;;;5032066;28;21144;-72
2023/03/05 12:42:30;;;;;;;6.67;3.90;;;7.40;99.90;;;;;;5018597;28;21010;-70
2023/03/05 12:45:11;;;;;;;4.03;3.30;;;7.50;99.90;;;;;;5089254;22;20509;-72
2023/03/05 12:47:42;;;;;;;4.33;3.10;;;7.50;99.90;;;;;;5034567;28;20442;-72
2023/03/05 12:50:29;;;;;;;4.50;3.63;;;7.50;99.90;;;;;;5034960;28;20940;-72
2023/03/05 12:53:18;;;;;;;4.23;3.83;;;7.50;99.90;;;;;;5018249;28;20475;-71
2023/03/05 12:55:55;;;;;;;5.03;3.40;;;7.50;99.90;;;;;;5023608;28;20571;-72
2023/03/05 12:58:42;;;;;;;4.23;3.83;;;7.50;99.90;;;;;;5018223;28;20454;-72
2023/03/05 13:01:32;;;;;;;4.60;4.13;;;7.40;99.90;;;;;;5021729;28;20984;-72
2023/03/05 13:04:09;;;;;;;4.50;3.70;;;7.50;99.90;;;;;;5047801;28;20932;-72
2023/03/05 13:06:38;;;;;;;5.00;3.60;;;7.50;99.90;;;;;;5031456;28;20208;-72
2023/03/05 13:09:26;;;;;;;6.00;3.95;;;7.40;99.90;;;;;;5031494;28;20471;-72
2023/03/05 13:11:56;;;;;;;5.27;4.20;;;7.50;99.90;;;;;;5016099;28;20290;-72
2023/03/05 13:14:47;;;;;;;3.93;3.10;;;7.40;99.90;;;;;;5018825;28;20917;-72
2023/03/05 13:17:43;;;;;;;5.83;3.70;;;7.40;99.90;;;;;;5034365;28;20421;-72
2023/03/05 13:20:30;;;;;;;4.67;3.33;;;7.40;99.90;;;;;;5051275;28;20486;-72